createdAt,value
2017-05-22T00:00:23.686Z,67.05
2017-05-22T00:01:23.659Z,66.76
2017-05-22T00:02:23.636Z,67.24
2017-05-22T00:03:23.624Z,66.86
2017-05-22T00:04:23.599Z,66.86
2017-05-22T00:05:23.274Z,66.96
2017-05-22T00:06:23.551Z,67.05
2017-05-22T00:07:23.227Z,66.76
2017-05-22T00:08:23.510Z,67.3
2017-05-22T00:09:23.489Z,66.63
2017-05-22T00:10:23.470Z,66.54
2017-05-22T00:11:23.453Z,66.47
2017-05-22T00:12:23.421Z,67.11
2017-05-22T00:13:23.408Z,67.11
2017-05-22T00:14:23.388Z,67.59
2017-05-22T00:15:23.364Z,67.11
2017-05-22T00:16:23.347Z,67.11
2017-05-22T00:17:23.322Z,67.21
2017-05-22T00:18:23.297Z,67.21
2017-05-22T00:19:23.283Z,67.49
2017-05-22T00:20:23.260Z,67.21
2017-05-22T00:21:23.239Z,67.21
2017-05-22T00:22:23.218Z,67.78
2017-05-22T00:23:23.192Z,67.21
2017-05-22T00:24:23.175Z,67.3
2017-05-22T00:25:23.152Z,67.53
2017-05-22T00:26:23.137Z,67.4
2017-05-22T00:27:23.113Z,67.63
2017-05-22T00:28:23.097Z,67.21
2017-05-22T00:29:23.074Z,67.49
2017-05-22T00:30:23.050Z,67.4
2017-05-22T00:31:23.037Z,67.3
2017-05-22T00:32:23.008Z,67.11
2017-05-22T00:33:22.987Z,67.3
2017-05-22T00:34:22.963Z,67.21
2017-05-22T00:35:22.939Z,67.59
2017-05-22T00:36:22.919Z,67.59
2017-05-22T00:37:22.901Z,67.78
2017-05-22T00:38:22.889Z,67.78
2017-05-22T00:39:22.872Z,68.07
2017-05-22T00:40:22.836Z,67.59
2017-05-22T00:41:22.820Z,68.26
2017-05-22T00:42:22.795Z,68.35
2017-05-22T00:43:22.776Z,67.88
2017-05-22T00:44:22.763Z,68.16
2017-05-22T00:45:22.730Z,67.78
2017-05-22T00:46:22.714Z,68.07
2017-05-22T00:47:22.690Z,67.97
2017-05-22T00:48:22.670Z,68.35
2017-05-22T00:49:22.650Z,67.59
2017-05-22T00:50:22.628Z,67.69
2017-05-22T00:51:22.605Z,67.69
2017-05-22T00:52:22.833Z,67.69
2017-05-22T00:53:22.566Z,67.78
2017-05-22T00:54:22.544Z,67.49
2017-05-22T00:55:22.280Z,67.49
2017-05-22T00:56:22.501Z,67.02
2017-05-22T00:57:22.176Z,67.11
2017-05-22T00:58:22.467Z,67.59
2017-05-22T00:59:22.436Z,67.59
2017-05-22T01:00:22.416Z,67.59
2017-05-22T01:01:22.393Z,67.59
2017-05-22T01:02:22.375Z,67.21
2017-05-22T01:03:22.352Z,67.21
2017-05-22T01:04:22.336Z,67.21
2017-05-22T01:05:22.011Z,67.11
2017-05-22T01:06:22.299Z,67.4
2017-05-22T01:07:22.267Z,67.11
2017-05-22T01:08:22.255Z,67.11
2017-05-22T01:09:22.226Z,67.02
2017-05-22T01:10:22.207Z,67.21
2017-05-22T01:11:22.193Z,67.21
2017-05-22T01:12:22.174Z,67.3
2017-05-22T01:13:22.144Z,67.49
2017-05-22T01:14:22.124Z,67.78
2017-05-22T01:15:22.101Z,67.3
2017-05-22T01:16:22.080Z,67.3
2017-05-22T01:17:22.059Z,67.3
2017-05-22T01:18:22.042Z,67.4
2017-05-22T01:19:21.714Z,67.3
2017-05-22T01:20:22.002Z,67.4
2017-05-22T01:21:21.978Z,67.59
2017-05-22T01:22:22.009Z,67.69
2017-05-22T01:23:21.933Z,67.4
2017-05-22T01:24:21.911Z,67.3
2017-05-22T01:25:21.892Z,67.78
2017-05-22T01:26:21.873Z,67.69
2017-05-22T01:27:21.904Z,67.78
2017-05-22T01:28:21.828Z,67.59
2017-05-22T01:29:21.809Z,67.69
2017-05-22T01:30:21.784Z,68.16
2017-05-22T01:31:21.764Z,67.59
2017-05-22T01:32:21.743Z,67.59
2017-05-22T01:33:21.714Z,67.49
2017-05-22T01:34:21.703Z,68.35
2017-05-22T01:35:21.732Z,67.88
2017-05-22T01:36:21.658Z,67.78
2017-05-22T01:37:21.637Z,67.88
2017-05-22T01:38:21.615Z,67.69
2017-05-22T01:39:21.600Z,67.65
2017-05-22T01:40:21.581Z,68.35
2017-05-22T01:41:21.559Z,68.61
2017-05-22T01:42:21.537Z,68.61
2017-05-22T01:43:21.564Z,68.23
2017-05-22T01:44:21.488Z,68.16
2017-05-22T01:45:21.471Z,68.23
2017-05-22T01:46:21.453Z,68.23
2017-05-22T01:47:21.484Z,68.04
2017-05-22T01:48:21.410Z,68.23
2017-05-22T01:49:21.386Z,68.8
2017-05-22T01:50:21.365Z,68.8
2017-05-22T01:51:21.350Z,68.9
2017-05-22T01:52:21.320Z,68.7
2017-05-22T01:53:21.297Z,68.7
2017-05-22T01:54:21.280Z,68.8
2017-05-22T01:55:21.256Z,68.8
2017-05-22T01:56:21.235Z,69.27
2017-05-22T01:57:21.224Z,68.99
2017-05-22T01:58:21.191Z,68.9
2017-05-22T01:59:21.176Z,69.09
2017-05-22T02:00:21.153Z,69.37
2017-05-22T02:01:21.134Z,69.37
2017-05-22T02:02:21.110Z,69.56
2017-05-22T02:03:21.093Z,69.18
2017-05-22T02:04:21.068Z,69.47
2017-05-22T02:05:21.046Z,69.76
2017-05-22T02:06:21.022Z,69.62
2017-05-22T02:07:21.004Z,69.76
2017-05-22T02:08:20.985Z,69.95
2017-05-22T02:09:21.010Z,69.85
2017-05-22T02:10:20.940Z,69.85
2017-05-22T02:11:20.921Z,70.33
2017-05-22T02:12:20.908Z,69.91
2017-05-22T02:13:20.881Z,69.91
2017-05-22T02:14:20.551Z,69.82
2017-05-22T02:15:20.837Z,69.82
2017-05-22T02:16:20.813Z,69.62
2017-05-22T02:17:20.790Z,70.29
2017-05-22T02:18:20.775Z,70.48
2017-05-22T02:19:20.754Z,70.58
2017-05-22T02:20:20.726Z,70.48
2017-05-22T02:21:20.757Z,70.2
2017-05-22T02:22:20.688Z,70.77
2017-05-22T02:23:20.663Z,71.06
2017-05-22T02:24:20.641Z,71.53
2017-05-22T02:25:20.618Z,71.53
2017-05-22T02:26:20.601Z,71.44
2017-05-22T02:27:20.578Z,71.34
2017-05-22T02:28:20.566Z,71.53
2017-05-22T02:29:20.533Z,71.63
2017-05-22T02:30:20.509Z,71.63
2017-05-22T02:31:20.490Z,71.72
2017-05-22T02:32:20.474Z,71.92
2017-05-22T02:33:20.448Z,71.92
2017-05-22T02:34:20.427Z,71.82
2017-05-22T02:35:20.412Z,72.11
2017-05-22T02:36:20.386Z,71.92
2017-05-22T02:37:20.419Z,71.72
2017-05-22T02:38:20.046Z,71.72
2017-05-22T02:39:20.323Z,72.01
2017-05-22T02:40:20.300Z,72.2
2017-05-22T02:41:20.281Z,72.11
2017-05-22T02:42:20.254Z,72.26
2017-05-22T02:43:20.232Z,72.01
2017-05-22T02:44:20.219Z,72.11
2017-05-22T02:45:20.197Z,72.11
2017-05-22T02:46:20.174Z,72.3
2017-05-22T02:47:20.157Z,71.92
2017-05-22T02:48:20.137Z,72.26
2017-05-22T02:49:20.113Z,72.45
2017-05-22T02:50:20.082Z,72.2
2017-05-22T02:51:20.069Z,72.17
2017-05-22T02:52:20.094Z,72.87
2017-05-22T02:53:20.022Z,72.64
2017-05-22T02:54:20.005Z,72.55
2017-05-22T02:55:19.975Z,72.55
2017-05-22T02:56:19.956Z,72.55
2017-05-22T02:57:19.939Z,72.64
2017-05-22T02:58:19.913Z,72.74
2017-05-22T02:59:19.891Z,73.22
2017-05-22T03:00:19.922Z,73.22
2017-05-22T03:01:19.851Z,73.22
2017-05-22T03:02:19.829Z,72.93
2017-05-22T03:03:19.810Z,73.22
2017-05-22T03:04:19.787Z,73.5
2017-05-22T03:05:19.761Z,73.22
2017-05-22T03:06:19.743Z,73.03
2017-05-22T03:07:19.722Z,73.03
2017-05-22T03:08:19.700Z,73.32
2017-05-22T03:09:19.681Z,73.79
2017-05-22T03:10:19.655Z,73.79
2017-05-22T03:11:19.643Z,73.69
2017-05-22T03:12:19.613Z,73.79
2017-05-22T03:13:19.596Z,73.69
2017-05-22T03:14:19.574Z,73.69
2017-05-22T03:15:19.598Z,73.79
2017-05-22T03:16:19.526Z,73.69
2017-05-22T03:17:19.509Z,73.69
2017-05-22T03:18:19.482Z,73.88
2017-05-22T03:19:19.465Z,74.27
2017-05-22T03:20:19.141Z,74.27
2017-05-22T03:21:19.419Z,73.88
2017-05-22T03:22:19.447Z,74.17
2017-05-22T03:23:19.383Z,73.98
2017-05-22T03:24:19.373Z,73.98
2017-05-22T03:25:19.336Z,74.27
2017-05-22T03:26:19.319Z,73.88
2017-05-22T03:27:19.601Z,73.98
2017-05-22T03:28:19.267Z,74.55
2017-05-22T03:29:19.246Z,74.08
2017-05-22T03:30:19.475Z,74.17
2017-05-22T03:31:18.909Z,74.37
2017-05-22T03:32:19.182Z,74.84
2017-05-22T03:33:19.160Z,74.37
2017-05-22T03:34:19.142Z,74.55
2017-05-22T03:35:19.117Z,74.65
2017-05-22T03:36:19.097Z,74.55
2017-05-22T03:37:19.083Z,74.37
2017-05-22T03:38:19.056Z,74.65
2017-05-22T03:39:19.046Z,74.65
2017-05-22T03:40:19.012Z,74.74
2017-05-22T03:41:18.987Z,74.37
2017-05-22T03:42:18.971Z,75.13
2017-05-22T03:43:18.946Z,75.03
2017-05-22T03:44:18.923Z,74.93
2017-05-22T03:45:18.907Z,75.03
2017-05-22T03:46:18.879Z,75.09
2017-05-22T03:47:18.857Z,75.28
2017-05-22T03:48:18.834Z,75.18
2017-05-22T03:49:18.814Z,75.09
2017-05-22T03:50:18.793Z,74.99
2017-05-22T03:51:18.770Z,74.9
2017-05-22T03:52:18.754Z,75.28
2017-05-22T03:53:18.425Z,74.93
2017-05-22T03:54:18.712Z,74.84
2017-05-22T03:55:18.386Z,75.03
2017-05-22T03:56:18.665Z,75.03
2017-05-22T03:57:18.642Z,75.13
2017-05-22T03:58:18.671Z,75.03
2017-05-22T03:59:18.604Z,75.03
2017-05-22T04:00:18.578Z,75.32
2017-05-22T04:01:18.561Z,75.03
2017-05-22T04:02:18.534Z,75.22
2017-05-22T04:03:18.517Z,75.32
2017-05-22T04:04:18.491Z,75.32
2017-05-22T04:05:18.470Z,75.22
2017-05-22T04:06:18.453Z,75.03
2017-05-22T04:07:18.427Z,74.93
2017-05-22T04:08:18.409Z,75.03
2017-05-22T04:09:18.435Z,74.84
2017-05-22T04:10:18.366Z,74.55
2017-05-22T04:11:18.341Z,74.55
2017-05-22T04:12:18.319Z,74.27
2017-05-22T04:13:18.299Z,74.27
2017-05-22T04:14:18.277Z,74.46
2017-05-22T04:15:18.262Z,74.08
2017-05-22T04:16:17.939Z,74.11
2017-05-22T04:17:18.215Z,73.73
2017-05-22T04:18:18.192Z,73.44
2017-05-22T04:19:18.170Z,73.35
2017-05-22T04:20:17.848Z,73.16
2017-05-22T04:21:18.125Z,73.22
2017-05-22T04:22:18.106Z,72.97
2017-05-22T04:23:18.082Z,73.25
2017-05-22T04:24:18.065Z,72.87
2017-05-22T04:25:18.046Z,72.87
2017-05-22T04:26:18.021Z,72.68
2017-05-22T04:27:17.999Z,72.78
2017-05-22T04:28:17.979Z,72.49
2017-05-22T04:29:17.961Z,72.11
2017-05-22T04:30:17.936Z,72.2
2017-05-22T04:31:17.917Z,72.62
2017-05-22T04:32:17.894Z,72.2
2017-05-22T04:33:17.873Z,72.33
2017-05-22T04:34:17.860Z,71.95
2017-05-22T04:35:17.832Z,71.38
2017-05-22T04:36:17.818Z,71.28
2017-05-22T04:37:17.788Z,70.81
2017-05-22T04:38:17.770Z,71
2017-05-22T04:39:17.749Z,70.17
2017-05-22T04:40:17.724Z,70.17
2017-05-22T04:41:17.711Z,70.27
2017-05-22T04:42:17.683Z,69.7
2017-05-22T04:43:17.664Z,69.21
2017-05-22T04:44:17.646Z,69.12
2017-05-22T04:45:17.618Z,69.12
2017-05-22T04:46:17.598Z,68.58
2017-05-22T04:47:17.588Z,67.91
2017-05-22T04:48:17.261Z,67.24
2017-05-22T04:49:17.539Z,67.34
2017-05-22T04:50:17.517Z,67.63
2017-05-22T04:51:17.500Z,66.89
2017-05-22T04:52:17.487Z,66.8
2017-05-22T04:53:17.462Z,66.7
2017-05-22T04:54:17.449Z,66.7
2017-05-22T04:55:17.424Z,66.13
2017-05-22T04:56:17.403Z,66.32
2017-05-22T04:57:17.381Z,66.61
2017-05-22T04:58:17.363Z,66.32
2017-05-22T04:59:17.339Z,66.41
2017-05-22T05:00:17.326Z,66.61
2017-05-22T05:01:16.998Z,65.68
2017-05-22T05:02:17.280Z,65.68
2017-05-22T05:03:17.315Z,65.58
2017-05-22T05:04:17.241Z,64.53
2017-05-22T05:05:17.218Z,64.25
2017-05-22T05:06:17.202Z,63.89
2017-05-22T05:07:17.185Z,63.6
2017-05-22T05:08:17.164Z,63.26
2017-05-22T05:09:17.197Z,62.77
2017-05-22T05:10:17.126Z,62.49
2017-05-22T05:11:17.110Z,61.85
2017-05-22T05:12:17.089Z,61.21
2017-05-22T05:13:17.088Z,60.72
2017-05-22T05:14:17.049Z,60.15
2017-05-22T05:15:17.029Z,59.67
2017-05-22T05:16:17.024Z,58.33
2017-05-22T05:17:16.999Z,58.74
2017-05-22T05:18:16.977Z,58.17
2017-05-22T05:19:16.958Z,57.3
2017-05-22T05:20:16.943Z,57.59
2017-05-22T05:21:16.622Z,57.11
2017-05-22T05:22:16.601Z,56.66
2017-05-22T05:23:16.892Z,56.18
2017-05-22T05:24:16.866Z,55.6
2017-05-22T05:25:16.849Z,55.41
2017-05-22T05:26:16.832Z,55.51
2017-05-22T05:27:16.824Z,54.47
2017-05-22T05:28:16.797Z,54.83
2017-05-22T05:29:16.784Z,54.35
2017-05-22T05:30:16.783Z,53.87
2017-05-22T05:31:16.749Z,54.35
2017-05-22T05:32:16.781Z,54.55
2017-05-22T05:33:16.762Z,54.25
2017-05-22T05:34:16.694Z,54.25
2017-05-22T05:35:16.677Z,53.8
2017-05-22T05:36:16.658Z,54.28
2017-05-22T05:37:16.647Z,53.42
2017-05-22T05:38:16.631Z,53.45
2017-05-22T05:39:16.610Z,52.39
2017-05-22T05:40:16.595Z,51.35
2017-05-22T05:41:16.575Z,51.07
2017-05-22T05:42:16.556Z,50.78
2017-05-22T05:43:16.548Z,50.87
2017-05-22T05:44:16.526Z,50.71
2017-05-22T05:45:16.563Z,50.32
2017-05-22T05:46:16.493Z,50.54
2017-05-22T05:47:16.480Z,48.81
2017-05-22T05:48:16.461Z,48.43
2017-05-22T05:49:16.446Z,48.71
2017-05-22T05:50:16.651Z,48.9
2017-05-22T05:51:16.422Z,49.02
2017-05-22T05:52:16.406Z,48.54
2017-05-22T05:53:16.387Z,48.64
2017-05-22T05:54:16.370Z,48.44
2017-05-22T05:55:16.348Z,47.29
2017-05-22T05:56:16.407Z,47.31
2017-05-22T05:57:16.320Z,46.64
2017-05-22T05:58:16.305Z,46.35
2017-05-22T05:59:15.991Z,46.45
2017-05-22T06:00:16.327Z,45.97
2017-05-22T06:01:16.260Z,46.15
2017-05-22T06:02:16.260Z,46.35
2017-05-22T06:03:16.285Z,45.68
2017-05-22T06:04:16.218Z,45.89
2017-05-22T06:05:16.200Z,45.21
2017-05-22T06:06:16.194Z,45.6
2017-05-22T06:07:16.174Z,45.34
2017-05-22T06:08:16.159Z,44.95
2017-05-22T06:09:16.150Z,44.66
2017-05-22T06:10:16.135Z,44.39
2017-05-22T06:11:16.123Z,44.2
2017-05-22T06:12:16.101Z,43.62
2017-05-22T06:13:16.099Z,43.33
2017-05-22T06:14:16.079Z,43.04
2017-05-22T06:15:16.068Z,42.75
2017-05-22T06:16:16.052Z,42.75
2017-05-22T06:17:16.090Z,43.04
2017-05-22T06:18:16.021Z,42.73
2017-05-22T06:19:16.008Z,43.02
2017-05-22T06:20:15.996Z,43.5
2017-05-22T06:21:15.987Z,43.67
2017-05-22T06:22:15.966Z,43.58
2017-05-22T06:23:15.962Z,43.21
2017-05-22T06:24:15.944Z,43.41
2017-05-22T06:25:15.934Z,43.6
2017-05-22T06:26:15.913Z,43.14
2017-05-22T06:27:15.900Z,42.75
2017-05-22T06:28:15.891Z,41.91
2017-05-22T06:29:15.881Z,41.61
2017-05-22T06:30:15.858Z,41.23
2017-05-22T06:31:15.846Z,41.73
2017-05-22T06:32:15.832Z,41.05
2017-05-22T06:33:15.822Z,40.5
2017-05-22T06:34:15.815Z,40.3
2017-05-22T06:35:15.810Z,40.01
2017-05-22T06:36:15.783Z,40.03
2017-05-22T06:37:15.777Z,39.74
2017-05-22T06:38:15.761Z,39.26
2017-05-22T06:39:15.749Z,39.84
2017-05-22T06:40:15.732Z,39.36
2017-05-22T06:41:15.721Z,39.36
2017-05-22T06:42:15.718Z,39.16
2017-05-22T06:43:15.702Z,39.18
2017-05-22T06:44:15.695Z,38.62
2017-05-22T06:45:15.672Z,38.04
2017-05-22T06:46:15.670Z,37.85
2017-05-22T06:47:15.665Z,37.17
2017-05-22T06:48:15.644Z,37.34
2017-05-22T06:49:15.631Z,38.21
2017-05-22T06:50:15.866Z,37.63
2017-05-22T06:51:15.602Z,37.63
2017-05-22T06:52:15.597Z,37.92
2017-05-22T06:53:15.586Z,37.55
2017-05-22T06:54:15.582Z,37.55
2017-05-22T06:55:15.562Z,36.8
2017-05-22T06:56:15.554Z,36.6
2017-05-22T06:57:15.546Z,35.85
2017-05-22T06:58:15.528Z,35.36
2017-05-22T06:59:15.523Z,34.88
2017-05-22T07:00:15.514Z,35.73
2017-05-22T07:01:15.500Z,36.02
2017-05-22T07:02:15.499Z,36.12
2017-05-22T07:03:15.482Z,35.85
2017-05-22T07:04:15.162Z,35.27
2017-05-22T07:05:15.458Z,35.09
2017-05-22T07:06:15.450Z,35.09
2017-05-22T07:07:15.439Z,34.97
2017-05-22T07:08:15.480Z,34.69
2017-05-22T07:09:15.421Z,34.97
2017-05-22T07:10:15.410Z,35.44
2017-05-22T07:11:15.090Z,35.54
2017-05-22T07:12:15.379Z,35.73
2017-05-22T07:13:15.379Z,35.44
2017-05-22T07:14:15.367Z,35.44
2017-05-22T07:15:15.356Z,35.64
2017-05-22T07:16:15.342Z,35.07
2017-05-22T07:17:15.331Z,34.61
2017-05-22T07:18:15.333Z,33.94
2017-05-22T07:19:15.320Z,33.84
2017-05-22T07:20:15.301Z,34.12
2017-05-22T07:21:15.340Z,34.02
2017-05-22T07:22:15.287Z,33.83
2017-05-22T07:23:15.272Z,34.02
2017-05-22T07:24:15.270Z,33.94
2017-05-22T07:25:15.263Z,33.94
2017-05-22T07:26:15.298Z,33.67
2017-05-22T07:27:15.235Z,33.76
2017-05-22T07:28:15.226Z,33.57
2017-05-22T07:29:15.225Z,32.81
2017-05-22T07:30:15.209Z,32.44
2017-05-22T07:31:15.199Z,32.44
2017-05-22T07:32:15.204Z,31.87
2017-05-22T07:33:15.180Z,31.1
2017-05-22T07:34:15.190Z,30.9
2017-05-22T07:35:15.168Z,30.62
2017-05-22T07:36:15.162Z,30.04
2017-05-22T07:37:15.147Z,30.33
2017-05-22T07:38:15.139Z,30.44
2017-05-22T07:39:15.132Z,29.47
2017-05-22T07:40:14.821Z,30.04
2017-05-22T07:41:15.111Z,30.05
2017-05-22T07:42:15.107Z,29.47
2017-05-22T07:43:15.098Z,29.19
2017-05-22T07:44:15.089Z,29.1
2017-05-22T07:45:15.083Z,29.49
2017-05-22T07:46:15.076Z,28.43
2017-05-22T07:47:15.066Z,28.23
2017-05-22T07:48:15.061Z,28.63
2017-05-22T07:49:15.054Z,28.63
2017-05-22T07:50:15.049Z,28.15
2017-05-22T07:51:15.043Z,27.48
2017-05-22T07:52:15.031Z,27.48
2017-05-22T07:53:15.037Z,27.68
2017-05-22T07:54:15.020Z,27.09
2017-05-22T07:55:15.017Z,26.91
2017-05-22T07:56:15.012Z,26.63
2017-05-22T07:57:15.000Z,26.04
2017-05-22T07:58:14.999Z,26.32
2017-05-22T07:59:14.990Z,26.51
2017-05-22T08:00:14.987Z,27.18
2017-05-22T08:01:14.672Z,27.65
2017-05-22T08:02:14.978Z,28.03
2017-05-22T08:03:14.973Z,28.23
2017-05-22T08:04:14.960Z,28.15
2017-05-22T08:05:14.948Z,27.18
2017-05-22T08:06:14.945Z,27.86
2017-05-22T08:07:14.945Z,27.94
2017-05-22T08:08:14.931Z,28.05
2017-05-22T08:09:14.928Z,27.84
2017-05-22T08:10:14.919Z,27.86
2017-05-22T08:11:14.928Z,27.08
2017-05-22T08:12:14.916Z,27.28
2017-05-22T08:13:14.609Z,27.76
2017-05-22T08:14:14.895Z,27.76
2017-05-22T08:15:14.896Z,26.89
2017-05-22T08:16:14.581Z,28.23
2017-05-22T08:17:14.884Z,28.79
2017-05-22T08:18:14.873Z,29.36
2017-05-22T08:19:14.868Z,29.46
2017-05-22T08:20:14.862Z,29.36
2017-05-22T08:21:14.877Z,29.36
2017-05-22T08:22:14.854Z,28.2
2017-05-22T08:23:14.847Z,28.14
2017-05-22T08:24:14.839Z,27.76
2017-05-22T08:25:14.835Z,26.98
2017-05-22T08:26:14.826Z,26.9
2017-05-22T08:27:14.822Z,26.61
2017-05-22T08:28:14.827Z,26.42
2017-05-22T08:29:14.809Z,26.52
2017-05-22T08:30:14.799Z,26.32
2017-05-22T08:31:14.793Z,26.32
2017-05-22T08:32:14.840Z,25.84
2017-05-22T08:33:14.785Z,25.84
2017-05-22T08:34:14.776Z,26.42
2017-05-22T08:35:14.774Z,26.42
2017-05-22T08:36:14.763Z,25.63
2017-05-22T08:37:14.764Z,25.43
2017-05-22T08:38:14.756Z,25.14
2017-05-22T08:39:14.748Z,25.45
2017-05-22T08:40:14.738Z,25.43
2017-05-22T08:41:14.740Z,25.34
2017-05-22T08:42:14.732Z,25.63
2017-05-22T08:43:14.723Z,25.04
2017-05-22T08:44:14.721Z,24.96
2017-05-22T08:45:14.720Z,24.77
2017-05-22T08:46:14.710Z,24.38
2017-05-22T08:47:14.712Z,25.34
2017-05-22T08:48:14.702Z,26.58
2017-05-22T08:49:14.696Z,26.36
2017-05-22T08:50:14.389Z,26.55
2017-05-22T08:51:14.682Z,26.37
2017-05-22T08:52:14.690Z,25.7
2017-05-22T08:53:14.673Z,25.62
2017-05-22T08:54:14.670Z,26.5
2017-05-22T08:55:14.363Z,26.48
2017-05-22T08:56:14.651Z,25.71
2017-05-22T08:57:14.646Z,25.04
2017-05-22T08:58:14.655Z,24.46
2017-05-22T08:59:14.638Z,23.69
2017-05-22T09:00:14.631Z,23.6
2017-05-22T09:01:14.634Z,24.08
2017-05-22T09:02:14.628Z,23.19
2017-05-22T09:03:14.623Z,23.57
2017-05-22T09:04:14.617Z,23.85
2017-05-22T09:05:14.609Z,23.46
2017-05-22T09:06:14.290Z,23.45
2017-05-22T09:07:14.589Z,23.94
2017-05-22T09:08:14.592Z,23.94
2017-05-22T09:09:14.582Z,22.78
2017-05-22T09:10:14.570Z,23.16
2017-05-22T09:11:14.562Z,22.96
2017-05-22T09:12:14.560Z,23.43
2017-05-22T09:13:14.602Z,23.62
2017-05-22T09:14:14.545Z,23.62
2017-05-22T09:15:14.542Z,23.04
2017-05-22T09:16:14.539Z,22.76
2017-05-22T09:17:14.530Z,22.96
2017-05-22T09:18:14.532Z,23.73
2017-05-22T09:19:14.514Z,23.25
2017-05-22T09:20:14.518Z,22.77
2017-05-22T09:21:14.503Z,22.78
2017-05-22T09:22:14.498Z,22.97
2017-05-22T09:23:14.505Z,22.66
2017-05-22T09:24:14.483Z,22.65
2017-05-22T09:25:14.478Z,22.17
2017-05-22T09:26:14.473Z,22.94
2017-05-22T09:27:14.460Z,23.61
2017-05-22T09:28:14.452Z,23.5
2017-05-22T09:29:14.445Z,22.92
2017-05-22T09:30:14.455Z,23.21
2017-05-22T09:31:14.436Z,22.63
2017-05-22T09:32:14.430Z,22.25
2017-05-22T09:33:14.418Z,22.16
2017-05-22T09:34:14.412Z,21.97
2017-05-22T09:35:14.402Z,21.77
2017-05-22T09:36:14.398Z,21.88
2017-05-22T09:37:14.396Z,21.97
2017-05-22T09:38:14.391Z,21.88
2017-05-22T09:39:14.377Z,21.2
2017-05-22T09:40:14.378Z,21.5
2017-05-22T09:41:14.358Z,21.11
2017-05-22T09:42:14.355Z,21.78
2017-05-22T09:43:14.352Z,21.86
2017-05-22T09:44:14.343Z,22.92
2017-05-22T09:45:14.335Z,23.68
2017-05-22T09:46:14.326Z,23.58
2017-05-22T09:47:14.332Z,24.35
2017-05-22T09:48:14.311Z,24.16
2017-05-22T09:49:14.300Z,23.87
2017-05-22T09:50:14.297Z,23.69
2017-05-22T09:51:14.290Z,23.49
2017-05-22T09:52:14.279Z,23.49
2017-05-22T09:53:14.277Z,23.69
2017-05-22T09:54:14.261Z,23.21
2017-05-22T09:55:14.257Z,23.02
2017-05-22T09:56:14.249Z,22.93
2017-05-22T09:57:14.241Z,22.93
2017-05-22T09:58:14.232Z,23.14
2017-05-22T09:59:14.231Z,22.83
2017-05-22T10:00:14.219Z,22.45
2017-05-22T10:02:14.205Z,22.65
2017-05-22T10:03:14.197Z,23.52
2017-05-22T10:04:14.191Z,23.79
2017-05-22T10:05:13.882Z,24.17
2017-05-22T10:06:14.286Z,24.07
2017-05-22T10:07:14.175Z,24.07
2017-05-22T10:08:14.155Z,23.79
2017-05-22T10:09:14.151Z,24.17
2017-05-22T10:10:14.145Z,24.27
2017-05-22T10:11:14.131Z,23.69
2017-05-22T10:12:14.127Z,23.41
2017-05-22T10:13:14.128Z,22.92
2017-05-22T10:14:14.120Z,23.02
2017-05-22T10:15:14.101Z,23.3
2017-05-22T10:16:14.100Z,23.39
2017-05-22T10:17:14.089Z,23.48
2017-05-22T10:18:14.086Z,23.58
2017-05-22T10:19:14.079Z,23.38
2017-05-22T10:20:14.067Z,23
2017-05-22T10:21:14.056Z,22.82
2017-05-22T10:22:14.051Z,23.02
2017-05-22T10:23:14.040Z,23.41
2017-05-22T10:24:14.034Z,23.39
2017-05-22T10:25:14.028Z,23.69
2017-05-22T10:26:14.021Z,23.39
2017-05-22T10:27:14.009Z,23.69
2017-05-22T10:28:14.003Z,22.92
2017-05-22T10:29:13.998Z,22.25
2017-05-22T10:30:13.991Z,22.25
2017-05-22T10:31:13.975Z,21.96
2017-05-22T10:32:13.974Z,22.05
2017-05-22T10:33:13.975Z,22.63
2017-05-22T10:34:13.958Z,22.53
2017-05-22T10:35:13.952Z,22.72
2017-05-22T10:36:13.640Z,22.34
2017-05-22T10:37:13.933Z,22.83
2017-05-22T10:38:13.923Z,22.93
2017-05-22T10:39:13.970Z,22.54
2017-05-22T10:40:13.913Z,21.96
2017-05-22T10:41:13.949Z,22.64
2017-05-22T10:42:13.892Z,22.16
2017-05-22T10:43:13.898Z,22.74
2017-05-22T10:44:13.878Z,23.5
2017-05-22T10:45:13.871Z,23.7
2017-05-22T10:46:13.860Z,22.92
2017-05-22T10:47:13.862Z,22.93
2017-05-22T10:48:13.853Z,23.13
2017-05-22T10:49:13.839Z,22.83
2017-05-22T10:50:13.838Z,23.02
2017-05-22T10:51:13.827Z,22.81
2017-05-22T10:52:13.822Z,23
2017-05-22T10:53:13.815Z,22.91
2017-05-22T10:54:13.806Z,23.41
2017-05-22T10:55:13.795Z,22.92
2017-05-22T10:56:13.789Z,22.25
2017-05-22T10:57:13.786Z,22.34
2017-05-22T10:58:13.833Z,22.05
2017-05-22T10:59:13.826Z,21.96
2017-05-22T11:00:13.459Z,22.05
2017-05-22T11:01:13.752Z,21.95
2017-05-22T11:02:13.743Z,22.83
2017-05-22T11:03:13.738Z,22.35
2017-05-22T11:04:13.733Z,23.21
2017-05-22T11:05:13.734Z,23.6
2017-05-22T11:06:13.715Z,23.6
2017-05-22T11:07:13.409Z,24.66
2017-05-22T11:08:13.699Z,24.84
2017-05-22T11:09:13.696Z,25.3
2017-05-22T11:10:13.682Z,26.27
2017-05-22T11:11:13.673Z,26.74
2017-05-22T11:12:13.670Z,27.7
2017-05-22T11:13:13.657Z,28.08
2017-05-22T11:14:13.645Z,27.97
2017-05-22T11:15:13.635Z,28.15
2017-05-22T11:16:13.635Z,28.44
2017-05-22T11:17:13.611Z,29.1
2017-05-22T11:18:13.696Z,29.09
2017-05-22T11:19:13.595Z,29.28
2017-05-22T11:20:13.273Z,30.24
2017-05-22T11:21:13.571Z,30.62
2017-05-22T11:22:13.552Z,30.91
2017-05-22T11:23:13.542Z,31.1
2017-05-22T11:24:13.522Z,30.91
2017-05-22T11:25:13.504Z,30.99
2017-05-22T11:26:13.494Z,31.3
2017-05-22T11:27:13.481Z,31.38
2017-05-22T11:28:13.473Z,31.76
2017-05-22T11:29:13.451Z,32.06
2017-05-22T11:30:13.432Z,31.96
2017-05-22T11:31:13.417Z,32.04
2017-05-22T11:32:13.401Z,32.71
2017-05-22T11:33:13.385Z,32.62
2017-05-22T11:34:13.371Z,33.28
2017-05-22T11:35:13.361Z,33.39
2017-05-22T11:36:13.341Z,33.68
2017-05-22T11:37:13.334Z,32.62
2017-05-22T11:38:13.310Z,32.14
2017-05-22T11:39:13.291Z,32.23
2017-05-22T11:40:13.282Z,32.33
2017-05-22T11:41:12.962Z,32.33
2017-05-22T11:42:13.237Z,32.62
2017-05-22T11:43:13.219Z,32.82
2017-05-22T11:44:13.215Z,32.15
2017-05-22T11:45:13.242Z,32.44
2017-05-22T11:46:13.181Z,32.54
2017-05-22T11:47:13.153Z,32.54
2017-05-22T11:48:13.146Z,32.71
2017-05-22T11:49:13.144Z,32.62
2017-05-22T11:50:13.108Z,32.52
2017-05-22T11:51:13.091Z,32.73
2017-05-22T11:52:13.071Z,31.96
2017-05-22T11:53:13.058Z,31.76
2017-05-22T11:54:13.045Z,31.57
2017-05-22T11:55:13.027Z,31.57
2017-05-22T11:56:13.017Z,31.86
2017-05-22T11:57:12.690Z,32.73
2017-05-22T11:58:12.974Z,32.64
2017-05-22T11:59:12.952Z,32.64
2017-05-22T12:00:12.947Z,33.29
2017-05-22T12:01:12.924Z,32.71
2017-05-22T12:02:12.904Z,32.62
2017-05-22T12:03:12.890Z,33.58
2017-05-22T12:04:12.870Z,33.48
2017-05-22T12:05:12.854Z,33.68
2017-05-22T12:06:12.834Z,33.58
2017-05-22T12:07:13.023Z,33.48
2017-05-22T12:08:12.800Z,33.58
2017-05-22T12:09:12.840Z,33.39
2017-05-22T12:10:12.771Z,32.62
2017-05-22T12:11:12.796Z,32.81
2017-05-22T12:12:12.435Z,32.81
2017-05-22T12:13:12.718Z,32.62
2017-05-22T12:14:12.694Z,32.81
2017-05-22T12:15:12.681Z,32.43
2017-05-22T12:16:12.662Z,32.71
2017-05-22T12:17:12.647Z,32.62
2017-05-22T12:18:12.632Z,33.29
2017-05-22T12:19:12.612Z,33.39
2017-05-22T12:20:12.607Z,33.4
2017-05-22T12:21:12.578Z,33.4
2017-05-22T12:22:12.559Z,32.54
2017-05-22T12:23:12.545Z,32.64
2017-05-22T12:24:12.527Z,33.1
2017-05-22T12:25:12.504Z,32.64
2017-05-22T12:26:12.489Z,33.02
2017-05-22T12:27:12.476Z,33.4
2017-05-22T12:28:12.457Z,33.31
2017-05-22T12:29:12.438Z,33.31
2017-05-22T12:30:12.422Z,32.82
2017-05-22T12:31:12.410Z,32.92
2017-05-22T12:32:12.388Z,32.24
2017-05-22T12:33:12.378Z,32.24
2017-05-22T12:34:12.356Z,32.54
2017-05-22T12:35:12.343Z,32.64
2017-05-22T12:36:12.327Z,32.71
2017-05-22T12:37:12.299Z,33.1
2017-05-22T12:38:12.285Z,33.2
2017-05-22T12:39:12.266Z,32.62
2017-05-22T12:40:12.002Z,32.73
2017-05-22T12:41:12.245Z,32.81
2017-05-22T12:42:12.263Z,32.52
2017-05-22T12:43:12.199Z,32.91
2017-05-22T12:44:11.882Z,32.62
2017-05-22T12:45:12.161Z,32.81
2017-05-22T12:46:12.144Z,33.39
2017-05-22T12:47:12.128Z,33.22
2017-05-22T12:48:12.175Z,33.02
2017-05-22T12:49:12.094Z,33.4
2017-05-22T12:50:12.130Z,33.22
2017-05-22T12:51:12.055Z,33.02
2017-05-22T12:52:12.043Z,32.54
2017-05-22T12:53:12.027Z,32.73
2017-05-22T12:54:12.005Z,32.54
2017-05-22T12:55:11.988Z,32.54
2017-05-22T12:56:11.970Z,32.73